Terminal Aerodrome Forecast
Issued by NWS

Current Version | Previous Version | Graphics & Text | Print | Product List | Glossary On
Versions: 1 2 3 4 5 6 7 8 9 10 11 12 13 14 15 16 17 18 19 20 21 22
000
FTUS41 KPBZ 201123
TAFMGW
TAF
KMGW 201123Z 2012/2112 18006KT P6SM SCT025 BKN035 WS010/21025KT
     FM201700 20010G20KT P6SM VCTS BKN035CB
     FM202300 23010KT P6SM OVC025=

USA.gov is the U.S. government's official web portal to all federal, state and local government web resources and services.